Huvudsida
METAR-TAF:

METAR-TAF

Flygplatser :

Barcelona, Venezuela

latitud: 10-07N, longitud: 064-41W, höjd: 7 m

Aktuellt väderrapport

Denna rapport gjordes för 1 timme och 11 minuter sedan, klockan 04:03 UTC
Vind 5 kt från sydost
Temperatur 26°C
Fuktighet 100%
Tryck 1015 hPa

METAR: SVBC 230403Z AUTO 14005KT NCD 26/26 Q1015

Tid: 01:14 (05:14 UTC)

Väderprognos

Denna rapport gjordes för 12 timmar och 14 minuter sedan, klockan 17:00 UTC
Prognos gäller från 22 kl. 18 UTC till 23 kl. 18 UTC
Vind 6 kt från nordost
Sikt 10 km eller mer
Spridda moln på en höjd av 1000 ft
Blir
från 22 kl. 19 UTC till 22 kl. 23 UTC
Vind 8 kt från ost/nordost
Sikt: 9000 m
Spridda moln på en höjd av 1000 ft
Spridda moln på en höjd av 5000 ft

TAF: SVBC 221700Z 2218/2318 05006KT 9999 SCT010 TX35/2218Z TN23/2306Z BECMG 2219/2223 06008KT 9000 -VCDZ SCT010 SCT050

Aktuella väderrapporter och prognoser från 4000 flygplatser (METAR- och TAF-rapporter).

De tillgängliga stationerna syns som gula och röda prickar på kartan.

För musen över prickarna för att se namnen på stationerna.

Klicka sedan för att få väderrapporter och prognoser.

För att ändra kartan: Klicka på de gröna knapparna med ett svart kors på för att zooma in; den gröna knappen med ett streck på för att zooma ut; eller på de gröna pilarna för angränsande kartor.


METAR-TAF: